sensor_id;sensor_type;location;lat;lon;timestamp;P1;durP1;ratioP1;P2;durP2;ratioP2
72573;SDS011;60603;52.548;13.420;2023-12-14T00:02:05;20.02;;;8.57;;
72573;SDS011;60603;52.548;13.420;2023-12-14T00:04:35;21.35;;;9.32;;
72573;SDS011;60603;52.548;13.420;2023-12-14T00:07:08;21.45;;;8.63;;
72573;SDS011;60603;52.548;13.420;2023-12-14T00:09:35;24.85;;;9.43;;
72573;SDS011;60603;52.548;13.420;2023-12-14T00:12:02;22.98;;;8.38;;
72573;SDS011;60603;52.548;13.420;2023-12-14T00:14:29;23.23;;;8.43;;
72573;SDS011;60603;52.548;13.420;2023-12-14T00:16:56;24.75;;;9.57;;
72573;SDS011;60603;52.548;13.420;2023-12-14T00:19:25;23.95;;;7.82;;
72573;SDS011;60603;52.548;13.420;2023-12-14T00:21:52;19.52;;;7.13;;
72573;SDS011;60603;52.548;13.420;2023-12-14T00:24:19;25.58;;;9.32;;
72573;SDS011;60603;52.548;13.420;2023-12-14T00:26:46;23.58;;;9.50;;
72573;SDS011;60603;52.548;13.420;2023-12-14T00:29:13;22.33;;;9.40;;
72573;SDS011;60603;52.548;13.420;2023-12-14T00:31:40;28.30;;;8.93;;
72573;SDS011;60603;52.548;13.420;2023-12-14T00:34:09;29.85;;;10.43;;
72573;SDS011;60603;52.548;13.420;2023-12-14T00:36:36;23.00;;;9.68;;
72573;SDS011;60603;52.548;13.420;2023-12-14T00:39:03;22.70;;;8.93;;
72573;SDS011;60603;52.548;13.420;2023-12-14T00:41:30;25.33;;;10.10;;
72573;SDS011;60603;52.548;13.420;2023-12-14T00:43:57;20.83;;;8.80;;
72573;SDS011;60603;52.548;13.420;2023-12-14T00:46:24;22.00;;;9.18;;
72573;SDS011;60603;52.548;13.420;2023-12-14T00:48:51;24.20;;;9.18;;
72573;SDS011;60603;52.548;13.420;2023-12-14T00:51:18;21.75;;;8.57;;
72573;SDS011;60603;52.548;13.420;2023-12-14T00:53:45;20.38;;;8.23;;
72573;SDS011;60603;52.548;13.420;2023-12-14T00:56:12;23.63;;;8.55;;
72573;SDS011;60603;52.548;13.420;2023-12-14T00:58:39;21.00;;;8.50;;
72573;SDS011;60603;52.548;13.420;2023-12-14T01:01:06;25.92;;;8.60;;
72573;SDS011;60603;52.548;13.420;2023-12-14T01:03:33;19.90;;;8.32;;
72573;SDS011;60603;52.548;13.420;2023-12-14T01:06:00;18.85;;;7.30;;
72573;SDS011;60603;52.548;13.420;2023-12-14T01:08:26;19.98;;;7.55;;
72573;SDS011;60603;52.548;13.420;2023-12-14T01:10:53;21.50;;;8.25;;
72573;SDS011;60603;52.548;13.420;2023-12-14T01:13:20;19.95;;;8.70;;
72573;SDS011;60603;52.548;13.420;2023-12-14T01:15:47;15.40;;;7.63;;
72573;SDS011;60603;52.548;13.420;2023-12-14T01:18:14;19.80;;;7.13;;
72573;SDS011;60603;52.548;13.420;2023-12-14T01:20:41;22.38;;;8.45;;
72573;SDS011;60603;52.548;13.420;2023-12-14T01:23:08;15.18;;;6.82;;
72573;SDS011;60603;52.548;13.420;2023-12-14T01:25:36;16.92;;;6.57;;
72573;SDS011;60603;52.548;13.420;2023-12-14T01:28:03;16.27;;;6.18;;
72573;SDS011;60603;52.548;13.420;2023-12-14T01:30:30;20.75;;;7.43;;
72573;SDS011;60603;52.548;13.420;2023-12-14T01:32:56;21.00;;;7.38;;
72573;SDS011;60603;52.548;13.420;2023-12-14T01:35:24;13.63;;;6.53;;
72573;SDS011;60603;52.548;13.420;2023-12-14T01:37:50;16.50;;;6.50;;
72573;SDS011;60603;52.548;13.420;2023-12-14T01:40:18;14.90;;;6.05;;
72573;SDS011;60603;52.548;13.420;2023-12-14T01:42:46;13.23;;;5.47;;
72573;SDS011;60603;52.548;13.420;2023-12-14T01:45:13;11.70;;;4.90;;
72573;SDS011;60603;52.548;13.420;2023-12-14T01:47:42;14.80;;;6.13;;
72573;SDS011;60603;52.548;13.420;2023-12-14T01:50:09;16.17;;;6.80;;
72573;SDS011;60603;52.548;13.420;2023-12-14T01:52:36;16.55;;;6.28;;
72573;SDS011;60603;52.548;13.420;2023-12-14T01:55:03;13.80;;;6.80;;
72573;SDS011;60603;52.548;13.420;2023-12-14T01:57:31;17.10;;;6.57;;
72573;SDS011;60603;52.548;13.420;2023-12-14T01:59:58;17.17;;;6.32;;
72573;SDS011;60603;52.548;13.420;2023-12-14T02:02:25;15.80;;;6.38;;
72573;SDS011;60603;52.548;13.420;2023-12-14T02:04:52;13.68;;;6.30;;
72573;SDS011;60603;52.548;13.420;2023-12-14T02:07:19;11.77;;;5.85;;
72573;SDS011;60603;52.548;13.420;2023-12-14T02:09:46;11.85;;;6.03;;
72573;SDS011;60603;52.548;13.420;2023-12-14T02:12:13;15.02;;;7.03;;
72573;SDS011;60603;52.548;13.420;2023-12-14T02:14:39;17.80;;;7.15;;
72573;SDS011;60603;52.548;13.420;2023-12-14T02:17:06;13.02;;;5.55;;
72573;SDS011;60603;52.548;13.420;2023-12-14T02:19:33;16.02;;;6.97;;
72573;SDS011;60603;52.548;13.420;2023-12-14T02:22:00;15.13;;;7.47;;
72573;SDS011;60603;52.548;13.420;2023-12-14T02:24:27;16.15;;;6.68;;
72573;SDS011;60603;52.548;13.420;2023-12-14T02:26:54;15.82;;;7.32;;
72573;SDS011;60603;52.548;13.420;2023-12-14T02:29:29;20.38;;;7.43;;
72573;SDS011;60603;52.548;13.420;2023-12-14T02:31:56;15.85;;;6.90;;
72573;SDS011;60603;52.548;13.420;2023-12-14T02:34:23;16.17;;;7.65;;
72573;SDS011;60603;52.548;13.420;2023-12-14T02:36:51;18.27;;;8.32;;
72573;SDS011;60603;52.548;13.420;2023-12-14T02:39:18;19.42;;;7.72;;
72573;SDS011;60603;52.548;13.420;2023-12-14T02:41:45;15.63;;;7.30;;
72573;SDS011;60603;52.548;13.420;2023-12-14T02:44:12;19.08;;;8.10;;
72573;SDS011;60603;52.548;13.420;2023-12-14T02:46:39;14.20;;;6.10;;
72573;SDS011;60603;52.548;13.420;2023-12-14T02:49:06;13.82;;;6.45;;
72573;SDS011;60603;52.548;13.420;2023-12-14T02:51:33;19.48;;;7.63;;
72573;SDS011;60603;52.548;13.420;2023-12-14T02:54:00;16.48;;;7.88;;
72573;SDS011;60603;52.548;13.420;2023-12-14T02:56:27;17.92;;;7.55;;
72573;SDS011;60603;52.548;13.420;2023-12-14T02:58:54;15.80;;;7.18;;
72573;SDS011;60603;52.548;13.420;2023-12-14T03:01:21;17.17;;;6.72;;
72573;SDS011;60603;52.548;13.420;2023-12-14T03:03:48;14.80;;;6.60;;
72573;SDS011;60603;52.548;13.420;2023-12-14T03:06:15;14.27;;;7.18;;
72573;SDS011;60603;52.548;13.420;2023-12-14T03:08:41;15.95;;;6.72;;
72573;SDS011;60603;52.548;13.420;2023-12-14T03:11:09;15.45;;;6.57;;
72573;SDS011;60603;52.548;13.420;2023-12-14T03:13:36;18.02;;;7.18;;
72573;SDS011;60603;52.548;13.420;2023-12-14T03:16:03;16.48;;;6.22;;
72573;SDS011;60603;52.548;13.420;2023-12-14T03:18:30;21.65;;;8.20;;
72573;SDS011;60603;52.548;13.420;2023-12-14T03:20:57;15.38;;;7.50;;
72573;SDS011;60603;52.548;13.420;2023-12-14T03:23:24;20.25;;;8.25;;
72573;SDS011;60603;52.548;13.420;2023-12-14T03:25:51;22.95;;;8.40;;
72573;SDS011;60603;52.548;13.420;2023-12-14T03:28:19;16.38;;;7.38;;
72573;SDS011;60603;52.548;13.420;2023-12-14T03:30:46;17.65;;;7.60;;
72573;SDS011;60603;52.548;13.420;2023-12-14T03:33:12;15.18;;;6.60;;
72573;SDS011;60603;52.548;13.420;2023-12-14T03:35:39;16.23;;;7.13;;
72573;SDS011;60603;52.548;13.420;2023-12-14T03:38:08;17.08;;;6.75;;
72573;SDS011;60603;52.548;13.420;2023-12-14T03:40:35;18.15;;;6.90;;
72573;SDS011;60603;52.548;13.420;2023-12-14T03:43:02;16.27;;;8.00;;
72573;SDS011;60603;52.548;13.420;2023-12-14T03:45:30;13.43;;;6.85;;
72573;SDS011;60603;52.548;13.420;2023-12-14T03:47:56;11.60;;;4.90;;
72573;SDS011;60603;52.548;13.420;2023-12-14T03:50:23;14.38;;;4.80;;
72573;SDS011;60603;52.548;13.420;2023-12-14T03:52:50;15.80;;;6.30;;
72573;SDS011;60603;52.548;13.420;2023-12-14T03:55:17;11.32;;;5.00;;
72573;SDS011;60603;52.548;13.420;2023-12-14T03:57:44;12.38;;;5.95;;
72573;SDS011;60603;52.548;13.420;2023-12-14T04:00:11;11.40;;;5.40;;
72573;SDS011;60603;52.548;13.420;2023-12-14T04:02:41;12.82;;;5.47;;
72573;SDS011;60603;52.548;13.420;2023-12-14T04:05:08;11.75;;;5.22;;
72573;SDS011;60603;52.548;13.420;2023-12-14T04:07:36;14.73;;;6.25;;
72573;SDS011;60603;52.548;13.420;2023-12-14T04:12:37;13.45;;;5.65;;
72573;SDS011;60603;52.548;13.420;2023-12-14T04:15:05;16.13;;;6.07;;
72573;SDS011;60603;52.548;13.420;2023-12-14T04:17:33;14.77;;;6.47;;
72573;SDS011;60603;52.548;13.420;2023-12-14T04:20:00;10.52;;;5.15;;
72573;SDS011;60603;52.548;13.420;2023-12-14T04:22:28;13.30;;;5.38;;
72573;SDS011;60603;52.548;13.420;2023-12-14T04:24:55;19.23;;;5.50;;
72573;SDS011;60603;52.548;13.420;2023-12-14T04:27:22;13.90;;;6.50;;
72573;SDS011;60603;52.548;13.420;2023-12-14T04:29:53;12.50;;;6.05;;
72573;SDS011;60603;52.548;13.420;2023-12-14T04:32:20;14.13;;;6.40;;
72573;SDS011;60603;52.548;13.420;2023-12-14T04:34:48;12.73;;;6.07;;
72573;SDS011;60603;52.548;13.420;2023-12-14T04:37:14;15.88;;;6.35;;
72573;SDS011;60603;52.548;13.420;2023-12-14T04:39:41;12.77;;;5.82;;
72573;SDS011;60603;52.548;13.420;2023-12-14T04:42:08;13.13;;;7.07;;
72573;SDS011;60603;52.548;13.420;2023-12-14T04:44:35;16.00;;;7.05;;
72573;SDS011;60603;52.548;13.420;2023-12-14T04:47:02;14.55;;;6.57;;
72573;SDS011;60603;52.548;13.420;2023-12-14T04:49:29;17.25;;;7.10;;
72573;SDS011;60603;52.548;13.420;2023-12-14T04:51:55;15.10;;;6.40;;
72573;SDS011;60603;52.548;13.420;2023-12-14T04:54:22;15.48;;;6.70;;
72573;SDS011;60603;52.548;13.420;2023-12-14T04:56:49;16.10;;;6.32;;
72573;SDS011;60603;52.548;13.420;2023-12-14T04:59:16;14.10;;;6.72;;
72573;SDS011;60603;52.548;13.420;2023-12-14T05:01:43;15.05;;;6.70;;
72573;SDS011;60603;52.548;13.420;2023-12-14T05:04:10;14.95;;;6.93;;
72573;SDS011;60603;52.548;13.420;2023-12-14T05:06:38;15.40;;;7.00;;
72573;SDS011;60603;52.548;13.420;2023-12-14T05:09:05;15.68;;;6.47;;
72573;SDS011;60603;52.548;13.420;2023-12-14T05:11:33;16.40;;;6.60;;
72573;SDS011;60603;52.548;13.420;2023-12-14T05:14:00;13.02;;;6.38;;
72573;SDS011;60603;52.548;13.420;2023-12-14T05:16:26;17.58;;;6.88;;
72573;SDS011;60603;52.548;13.420;2023-12-14T05:18:54;14.05;;;6.45;;
72573;SDS011;60603;52.548;13.420;2023-12-14T05:21:20;15.45;;;6.30;;
72573;SDS011;60603;52.548;13.420;2023-12-14T05:23:48;13.85;;;6.65;;
72573;SDS011;60603;52.548;13.420;2023-12-14T05:26:14;15.35;;;7.72;;
72573;SDS011;60603;52.548;13.420;2023-12-14T05:28:41;15.75;;;6.60;;
72573;SDS011;60603;52.548;13.420;2023-12-14T05:31:08;18.13;;;7.00;;
72573;SDS011;60603;52.548;13.420;2023-12-14T05:33:38;14.70;;;6.53;;
72573;SDS011;60603;52.548;13.420;2023-12-14T05:36:05;16.35;;;7.82;;
72573;SDS011;60603;52.548;13.420;2023-12-14T05:38:40;13.85;;;6.38;;
72573;SDS011;60603;52.548;13.420;2023-12-14T05:41:07;16.65;;;6.85;;
72573;SDS011;60603;52.548;13.420;2023-12-14T05:43:34;14.18;;;6.22;;
72573;SDS011;60603;52.548;13.420;2023-12-14T05:46:01;14.10;;;6.60;;
72573;SDS011;60603;52.548;13.420;2023-12-14T05:48:29;12.60;;;6.70;;
72573;SDS011;60603;52.548;13.420;2023-12-14T05:50:56;14.05;;;6.32;;
72573;SDS011;60603;52.548;13.420;2023-12-14T05:53:23;13.77;;;6.95;;
72573;SDS011;60603;52.548;13.420;2023-12-14T05:55:50;14.52;;;6.40;;
72573;SDS011;60603;52.548;13.420;2023-12-14T05:58:17;16.27;;;7.38;;
72573;SDS011;60603;52.548;13.420;2023-12-14T06:00:45;14.30;;;6.90;;
72573;SDS011;60603;52.548;13.420;2023-12-14T06:03:12;14.70;;;6.40;;
72573;SDS011;60603;52.548;13.420;2023-12-14T06:05:38;15.95;;;7.25;;
72573;SDS011;60603;52.548;13.420;2023-12-14T06:08:06;14.82;;;7.20;;
72573;SDS011;60603;52.548;13.420;2023-12-14T06:10:33;13.65;;;7.05;;
72573;SDS011;60603;52.548;13.420;2023-12-14T06:13:00;11.27;;;6.18;;
72573;SDS011;60603;52.548;13.420;2023-12-14T06:15:27;13.55;;;6.22;;
72573;SDS011;60603;52.548;13.420;2023-12-14T06:17:54;12.75;;;6.10;;
72573;SDS011;60603;52.548;13.420;2023-12-14T06:20:21;12.50;;;6.30;;
72573;SDS011;60603;52.548;13.420;2023-12-14T06:22:49;12.98;;;7.03;;
72573;SDS011;60603;52.548;13.420;2023-12-14T06:25:16;13.32;;;6.57;;
72573;SDS011;60603;52.548;13.420;2023-12-14T06:27:43;15.52;;;6.80;;
72573;SDS011;60603;52.548;13.420;2023-12-14T06:30:11;12.90;;;5.75;;
72573;SDS011;60603;52.548;13.420;2023-12-14T06:32:38;11.55;;;5.72;;
72573;SDS011;60603;52.548;13.420;2023-12-14T06:35:06;12.70;;;5.97;;
72573;SDS011;60603;52.548;13.420;2023-12-14T06:37:33;13.07;;;6.43;;
72573;SDS011;60603;52.548;13.420;2023-12-14T06:40:00;13.52;;;5.75;;
72573;SDS011;60603;52.548;13.420;2023-12-14T06:42:27;12.20;;;6.05;;
72573;SDS011;60603;52.548;13.420;2023-12-14T06:44:54;12.93;;;6.18;;
72573;SDS011;60603;52.548;13.420;2023-12-14T06:47:21;11.85;;;6.43;;
72573;SDS011;60603;52.548;13.420;2023-12-14T06:49:48;12.98;;;5.90;;
72573;SDS011;60603;52.548;13.420;2023-12-14T06:52:16;12.15;;;5.90;;
72573;SDS011;60603;52.548;13.420;2023-12-14T06:54:43;12.15;;;6.25;;
72573;SDS011;60603;52.548;13.420;2023-12-14T06:57:10;12.60;;;6.20;;
72573;SDS011;60603;52.548;13.420;2023-12-14T06:59:37;13.43;;;6.60;;
72573;SDS011;60603;52.548;13.420;2023-12-14T07:02:04;13.05;;;5.55;;
72573;SDS011;60603;52.548;13.420;2023-12-14T07:04:31;13.68;;;7.25;;
72573;SDS011;60603;52.548;13.420;2023-12-14T07:06:58;13.57;;;6.28;;
72573;SDS011;60603;52.548;13.420;2023-12-14T07:09:25;14.20;;;6.15;;
72573;SDS011;60603;52.548;13.420;2023-12-14T07:11:52;12.68;;;6.90;;
72573;SDS011;60603;52.548;13.420;2023-12-14T07:14:19;12.73;;;6.82;;
72573;SDS011;60603;52.548;13.420;2023-12-14T07:16:50;14.00;;;6.53;;
72573;SDS011;60603;52.548;13.420;2023-12-14T07:19:16;10.23;;;5.70;;
72573;SDS011;60603;52.548;13.420;2023-12-14T07:21:43;15.65;;;6.75;;
72573;SDS011;60603;52.548;13.420;2023-12-14T07:24:10;11.98;;;6.28;;
72573;SDS011;60603;52.548;13.420;2023-12-14T07:26:37;14.85;;;6.68;;
72573;SDS011;60603;52.548;13.420;2023-12-14T07:29:04;13.80;;;6.07;;
72573;SDS011;60603;52.548;13.420;2023-12-14T07:31:31;13.48;;;6.55;;
72573;SDS011;60603;52.548;13.420;2023-12-14T07:34:00;15.48;;;7.57;;
72573;SDS011;60603;52.548;13.420;2023-12-14T07:36:27;13.75;;;6.60;;
72573;SDS011;60603;52.548;13.420;2023-12-14T07:38:54;13.25;;;6.85;;
72573;SDS011;60603;52.548;13.420;2023-12-14T07:41:21;14.73;;;6.85;;
72573;SDS011;60603;52.548;13.420;2023-12-14T07:43:53;17.63;;;7.95;;
72573;SDS011;60603;52.548;13.420;2023-12-14T07:46:20;16.35;;;7.20;;
72573;SDS011;60603;52.548;13.420;2023-12-14T07:48:46;17.98;;;7.82;;
72573;SDS011;60603;52.548;13.420;2023-12-14T07:51:14;15.68;;;7.85;;
72573;SDS011;60603;52.548;13.420;2023-12-14T07:53:41;16.08;;;6.80;;
72573;SDS011;60603;52.548;13.420;2023-12-14T07:56:09;17.45;;;7.60;;
72573;SDS011;60603;52.548;13.420;2023-12-14T07:58:36;16.50;;;7.82;;
72573;SDS011;60603;52.548;13.420;2023-12-14T08:01:03;15.73;;;7.68;;
72573;SDS011;60603;52.548;13.420;2023-12-14T08:03:30;14.60;;;7.40;;
72573;SDS011;60603;52.548;13.420;2023-12-14T08:05:57;13.85;;;7.47;;
72573;SDS011;60603;52.548;13.420;2023-12-14T08:08:24;14.25;;;6.47;;
72573;SDS011;60603;52.548;13.420;2023-12-14T08:10:51;12.95;;;6.70;;
72573;SDS011;60603;52.548;13.420;2023-12-14T08:13:19;15.10;;;7.43;;
72573;SDS011;60603;52.548;13.420;2023-12-14T08:15:46;16.65;;;8.07;;
72573;SDS011;60603;52.548;13.420;2023-12-14T08:18:12;16.38;;;8.70;;
72573;SDS011;60603;52.548;13.420;2023-12-14T08:20:40;16.67;;;7.80;;
72573;SDS011;60603;52.548;13.420;2023-12-14T08:23:07;14.73;;;7.80;;
72573;SDS011;60603;52.548;13.420;2023-12-14T08:25:34;14.40;;;7.78;;
72573;SDS011;60603;52.548;13.420;2023-12-14T08:28:01;14.48;;;7.93;;
72573;SDS011;60603;52.548;13.420;2023-12-14T08:30:31;16.48;;;8.35;;
72573;SDS011;60603;52.548;13.420;2023-12-14T08:32:58;17.52;;;8.73;;
72573;SDS011;60603;52.548;13.420;2023-12-14T08:35:25;15.77;;;7.35;;
72573;SDS011;60603;52.548;13.420;2023-12-14T08:37:52;16.00;;;8.20;;
72573;SDS011;60603;52.548;13.420;2023-12-14T08:40:19;15.25;;;7.85;;
72573;SDS011;60603;52.548;13.420;2023-12-14T08:42:46;15.02;;;7.40;;
72573;SDS011;60603;52.548;13.420;2023-12-14T08:45:14;15.90;;;7.60;;
72573;SDS011;60603;52.548;13.420;2023-12-14T08:47:41;15.88;;;7.68;;
72573;SDS011;60603;52.548;13.420;2023-12-14T08:50:09;15.95;;;8.40;;
72573;SDS011;60603;52.548;13.420;2023-12-14T08:52:36;18.17;;;7.80;;
72573;SDS011;60603;52.548;13.420;2023-12-14T08:55:04;17.77;;;8.45;;
72573;SDS011;60603;52.548;13.420;2023-12-14T08:57:31;19.75;;;8.82;;
72573;SDS011;60603;52.548;13.420;2023-12-14T08:59:58;17.45;;;7.70;;
72573;SDS011;60603;52.548;13.420;2023-12-14T09:02:25;16.08;;;8.18;;
72573;SDS011;60603;52.548;13.420;2023-12-14T09:04:52;22.02;;;9.02;;
72573;SDS011;60603;52.548;13.420;2023-12-14T09:07:19;16.35;;;7.88;;
72573;SDS011;60603;52.548;13.420;2023-12-14T09:09:46;18.42;;;7.57;;
72573;SDS011;60603;52.548;13.420;2023-12-14T09:12:12;16.60;;;8.55;;
72573;SDS011;60603;52.548;13.420;2023-12-14T09:14:39;15.27;;;7.25;;
72573;SDS011;60603;52.548;13.420;2023-12-14T09:17:06;15.13;;;5.85;;
72573;SDS011;60603;52.548;13.420;2023-12-14T09:19:33;17.83;;;7.82;;
72573;SDS011;60603;52.548;13.420;2023-12-14T09:22:00;20.45;;;7.63;;
72573;SDS011;60603;52.548;13.420;2023-12-14T09:24:27;15.85;;;7.25;;
72573;SDS011;60603;52.548;13.420;2023-12-14T09:26:55;20.38;;;9.15;;
72573;SDS011;60603;52.548;13.420;2023-12-14T09:29:22;15.40;;;6.97;;
72573;SDS011;60603;52.548;13.420;2023-12-14T09:31:49;19.08;;;8.43;;
72573;SDS011;60603;52.548;13.420;2023-12-14T09:34:17;16.10;;;7.60;;
72573;SDS011;60603;52.548;13.420;2023-12-14T09:36:44;15.40;;;7.28;;
72573;SDS011;60603;52.548;13.420;2023-12-14T09:39:11;15.50;;;6.95;;
72573;SDS011;60603;52.548;13.420;2023-12-14T09:41:38;14.45;;;7.07;;
72573;SDS011;60603;52.548;13.420;2023-12-14T09:44:06;14.48;;;6.82;;
72573;SDS011;60603;52.548;13.420;2023-12-14T09:46:34;13.48;;;6.68;;
72573;SDS011;60603;52.548;13.420;2023-12-14T09:49:04;15.38;;;7.20;;
72573;SDS011;60603;52.548;13.420;2023-12-14T09:54:01;14.27;;;6.55;;
72573;SDS011;60603;52.548;13.420;2023-12-14T09:56:29;14.63;;;6.72;;
72573;SDS011;60603;52.548;13.420;2023-12-14T09:58:57;15.02;;;6.60;;
72573;SDS011;60603;52.548;13.420;2023-12-14T10:01:25;17.75;;;7.18;;
72573;SDS011;60603;52.548;13.420;2023-12-14T10:04:11;16.58;;;7.57;;
72573;SDS011;60603;52.548;13.420;2023-12-14T10:06:43;20.00;;;8.02;;
72573;SDS011;60603;52.548;13.420;2023-12-14T10:09:12;14.85;;;7.57;;
72573;SDS011;60603;52.548;13.420;2023-12-14T10:11:44;16.20;;;7.43;;
72573;SDS011;60603;52.548;13.420;2023-12-14T10:14:21;17.88;;;7.68;;
72573;SDS011;60603;52.548;13.420;2023-12-14T10:16:49;18.25;;;8.15;;
72573;SDS011;60603;52.548;13.420;2023-12-14T10:19:18;17.50;;;8.85;;
72573;SDS011;60603;52.548;13.420;2023-12-14T10:21:46;18.17;;;8.38;;
72573;SDS011;60603;52.548;13.420;2023-12-14T10:24:13;15.38;;;7.15;;
72573;SDS011;60603;52.548;13.420;2023-12-14T10:26:46;16.73;;;8.35;;
72573;SDS011;60603;52.548;13.420;2023-12-14T10:29:14;19.90;;;9.23;;
72573;SDS011;60603;52.548;13.420;2023-12-14T10:31:42;15.35;;;7.22;;
72573;SDS011;60603;52.548;13.420;2023-12-14T10:34:10;15.90;;;8.00;;
72573;SDS011;60603;52.548;13.420;2023-12-14T10:36:39;16.90;;;7.43;;
72573;SDS011;60603;52.548;13.420;2023-12-14T10:39:08;19.50;;;8.05;;
72573;SDS011;60603;52.548;13.420;2023-12-14T10:41:35;16.45;;;8.27;;
72573;SDS011;60603;52.548;13.420;2023-12-14T10:44:02;16.27;;;7.47;;
72573;SDS011;60603;52.548;13.420;2023-12-14T10:46:49;14.25;;;6.32;;
72573;SDS011;60603;52.548;13.420;2023-12-14T10:49:20;16.80;;;8.43;;
72573;SDS011;60603;52.548;13.420;2023-12-14T10:51:46;21.75;;;9.48;;
72573;SDS011;60603;52.548;13.420;2023-12-14T10:54:15;16.77;;;8.20;;
72573;SDS011;60603;52.548;13.420;2023-12-14T10:56:42;15.07;;;7.85;;
72573;SDS011;60603;52.548;13.420;2023-12-14T10:59:09;18.13;;;8.65;;
72573;SDS011;60603;52.548;13.420;2023-12-14T11:01:36;16.70;;;6.90;;
72573;SDS011;60603;52.548;13.420;2023-12-14T11:04:06;13.25;;;7.03;;
72573;SDS011;60603;52.548;13.420;2023-12-14T11:06:39;15.45;;;6.75;;
72573;SDS011;60603;52.548;13.420;2023-12-14T11:09:07;11.82;;;6.15;;
72573;SDS011;60603;52.548;13.420;2023-12-14T11:12:19;14.98;;;7.30;;
72573;SDS011;60603;52.548;13.420;2023-12-14T11:14:26;14.38;;;6.60;;
72573;SDS011;60603;52.548;13.420;2023-12-14T11:16:57;14.57;;;6.00;;
72573;SDS011;60603;52.548;13.420;2023-12-14T11:19:32;12.82;;;7.28;;
72573;SDS011;60603;52.548;13.420;2023-12-14T11:22:11;15.77;;;7.07;;
72573;SDS011;60603;52.548;13.420;2023-12-14T11:24:42;14.00;;;6.43;;
72573;SDS011;60603;52.548;13.420;2023-12-14T11:27:11;12.25;;;5.45;;
72573;SDS011;60603;52.548;13.420;2023-12-14T11:29:38;11.27;;;5.53;;
72573;SDS011;60603;52.548;13.420;2023-12-14T11:32:08;12.32;;;6.18;;
72573;SDS011;60603;52.548;13.420;2023-12-14T11:34:35;13.40;;;6.38;;
72573;SDS011;60603;52.548;13.420;2023-12-14T11:37:02;13.90;;;6.55;;
72573;SDS011;60603;52.548;13.420;2023-12-14T11:39:32;14.45;;;7.03;;
72573;SDS011;60603;52.548;13.420;2023-12-14T11:41:59;12.93;;;6.15;;
72573;SDS011;60603;52.548;13.420;2023-12-14T11:44:30;12.23;;;6.65;;
72573;SDS011;60603;52.548;13.420;2023-12-14T11:46:57;11.07;;;6.28;;
72573;SDS011;60603;52.548;13.420;2023-12-14T11:49:27;13.13;;;6.80;;
72573;SDS011;60603;52.548;13.420;2023-12-14T11:51:54;13.30;;;6.78;;
72573;SDS011;60603;52.548;13.420;2023-12-14T11:54:22;15.35;;;5.88;;
72573;SDS011;60603;52.548;13.420;2023-12-14T11:56:49;12.20;;;5.78;;
72573;SDS011;60603;52.548;13.420;2023-12-14T11:59:17;13.15;;;6.28;;
72573;SDS011;60603;52.548;13.420;2023-12-14T12:01:57;15.80;;;7.28;;
72573;SDS011;60603;52.548;13.420;2023-12-14T12:04:25;13.35;;;6.38;;
72573;SDS011;60603;52.548;13.420;2023-12-14T12:07:02;13.80;;;7.35;;
72573;SDS011;60603;52.548;13.420;2023-12-14T12:09:34;12.13;;;6.78;;
72573;SDS011;60603;52.548;13.420;2023-12-14T12:12:05;12.80;;;5.70;;
72573;SDS011;60603;52.548;13.420;2023-12-14T12:14:33;15.90;;;6.72;;
72573;SDS011;60603;52.548;13.420;2023-12-14T12:17:00;11.15;;;5.50;;
72573;SDS011;60603;52.548;13.420;2023-12-14T12:19:27;11.50;;;5.78;;
72573;SDS011;60603;52.548;13.420;2023-12-14T12:21:54;13.73;;;6.68;;
72573;SDS011;60603;52.548;13.420;2023-12-14T12:24:21;13.73;;;6.57;;
72573;SDS011;60603;52.548;13.420;2023-12-14T12:26:53;13.57;;;6.63;;
72573;SDS011;60603;52.548;13.420;2023-12-14T12:31:50;14.32;;;6.68;;
72573;SDS011;60603;52.548;13.420;2023-12-14T12:34:18;14.57;;;7.22;;
72573;SDS011;60603;52.548;13.420;2023-12-14T12:36:45;15.65;;;6.97;;
72573;SDS011;60603;52.548;13.420;2023-12-14T12:39:12;12.50;;;6.20;;
72573;SDS011;60603;52.548;13.420;2023-12-14T12:41:39;13.25;;;6.53;;
72573;SDS011;60603;52.548;13.420;2023-12-14T12:44:06;14.77;;;7.63;;
72573;SDS011;60603;52.548;13.420;2023-12-14T12:46:34;14.02;;;7.00;;
72573;SDS011;60603;52.548;13.420;2023-12-14T12:49:02;17.00;;;7.35;;
72573;SDS011;60603;52.548;13.420;2023-12-14T12:51:31;16.67;;;7.05;;
72573;SDS011;60603;52.548;13.420;2023-12-14T12:53:58;17.23;;;7.55;;
72573;SDS011;60603;52.548;13.420;2023-12-14T12:56:38;13.43;;;6.97;;
72573;SDS011;60603;52.548;13.420;2023-12-14T12:59:05;15.98;;;7.60;;
72573;SDS011;60603;52.548;13.420;2023-12-14T13:01:35;14.80;;;8.05;;
72573;SDS011;60603;52.548;13.420;2023-12-14T13:04:02;14.43;;;6.82;;
72573;SDS011;60603;52.548;13.420;2023-12-14T13:06:31;14.60;;;6.72;;
72573;SDS011;60603;52.548;13.420;2023-12-14T13:08:58;15.13;;;6.65;;
72573;SDS011;60603;52.548;13.420;2023-12-14T13:11:24;15.80;;;7.00;;
72573;SDS011;60603;52.548;13.420;2023-12-14T13:13:52;16.40;;;7.28;;
72573;SDS011;60603;52.548;13.420;2023-12-14T13:16:19;13.52;;;6.72;;
72573;SDS011;60603;52.548;13.420;2023-12-14T13:18:46;14.13;;;7.20;;
72573;SDS011;60603;52.548;13.420;2023-12-14T13:21:13;15.98;;;7.43;;
72573;SDS011;60603;52.548;13.420;2023-12-14T13:23:40;15.93;;;7.13;;
72573;SDS011;60603;52.548;13.420;2023-12-14T13:26:07;16.70;;;7.18;;
72573;SDS011;60603;52.548;13.420;2023-12-14T13:28:35;17.85;;;6.28;;
72573;SDS011;60603;52.548;13.420;2023-12-14T13:31:01;13.80;;;6.63;;
72573;SDS011;60603;52.548;13.420;2023-12-14T13:33:30;14.55;;;8.07;;
72573;SDS011;60603;52.548;13.420;2023-12-14T13:35:57;14.60;;;7.13;;
72573;SDS011;60603;52.548;13.420;2023-12-14T13:38:25;15.43;;;6.63;;
72573;SDS011;60603;52.548;13.420;2023-12-14T13:40:52;14.20;;;6.38;;
72573;SDS011;60603;52.548;13.420;2023-12-14T13:43:19;13.70;;;6.35;;
72573;SDS011;60603;52.548;13.420;2023-12-14T13:45:46;14.73;;;7.32;;
72573;SDS011;60603;52.548;13.420;2023-12-14T13:48:27;13.77;;;6.65;;
72573;SDS011;60603;52.548;13.420;2023-12-14T13:51:00;15.15;;;6.60;;
72573;SDS011;60603;52.548;13.420;2023-12-14T13:53:27;17.55;;;8.10;;
72573;SDS011;60603;52.548;13.420;2023-12-14T13:55:53;12.05;;;6.20;;
72573;SDS011;60603;52.548;13.420;2023-12-14T13:58:21;13.70;;;6.82;;
72573;SDS011;60603;52.548;13.420;2023-12-14T14:00:48;17.25;;;7.55;;
72573;SDS011;60603;52.548;13.420;2023-12-14T14:03:15;16.55;;;7.63;;
72573;SDS011;60603;52.548;13.420;2023-12-14T14:05:42;16.92;;;7.60;;
72573;SDS011;60603;52.548;13.420;2023-12-14T14:08:11;15.70;;;7.78;;
72573;SDS011;60603;52.548;13.420;2023-12-14T14:10:43;16.77;;;6.97;;
72573;SDS011;60603;52.548;13.420;2023-12-14T14:13:10;16.55;;;7.78;;
72573;SDS011;60603;52.548;13.420;2023-12-14T14:15:37;15.13;;;7.47;;
72573;SDS011;60603;52.548;13.420;2023-12-14T14:18:04;12.38;;;6.53;;
72573;SDS011;60603;52.548;13.420;2023-12-14T14:20:31;12.43;;;6.47;;
72573;SDS011;60603;52.548;13.420;2023-12-14T14:22:58;14.65;;;7.05;;
72573;SDS011;60603;52.548;13.420;2023-12-14T14:25:26;14.82;;;7.00;;
72573;SDS011;60603;52.548;13.420;2023-12-14T14:27:53;14.60;;;6.70;;
72573;SDS011;60603;52.548;13.420;2023-12-14T14:30:20;14.00;;;6.80;;
72573;SDS011;60603;52.548;13.420;2023-12-14T14:32:47;12.23;;;5.97;;